sensor_id;sensor_type;location;lat;lon;timestamp;P1;durP1;ratioP1;P2;durP2;ratioP2
62633;SDS011;48704;50.534;6.442;2022-12-10T00:01:09;38.38;;;17.30;;
62633;SDS011;48704;50.534;6.442;2022-12-10T00:03:36;39.58;;;16.30;;
62633;SDS011;48704;50.534;6.442;2022-12-10T00:06:03;24.92;;;11.88;;
62633;SDS011;48704;50.534;6.442;2022-12-10T00:08:29;28.75;;;13.77;;
62633;SDS011;48704;50.534;6.442;2022-12-10T00:10:55;28.88;;;11.63;;
62633;SDS011;48704;50.534;6.442;2022-12-10T00:13:21;29.42;;;12.35;;
62633;SDS011;48704;50.534;6.442;2022-12-10T00:15:47;28.60;;;12.95;;
62633;SDS011;48704;50.534;6.442;2022-12-10T00:18:12;21.75;;;11.48;;
62633;SDS011;48704;50.534;6.442;2022-12-10T00:20:37;27.55;;;12.23;;
62633;SDS011;48704;50.534;6.442;2022-12-10T00:23:03;33.67;;;11.35;;
62633;SDS011;48704;50.534;6.442;2022-12-10T00:25:28;26.70;;;12.20;;
62633;SDS011;48704;50.534;6.442;2022-12-10T00:27:54;27.83;;;12.40;;
62633;SDS011;48704;50.534;6.442;2022-12-10T00:30:19;29.25;;;11.38;;
62633;SDS011;48704;50.534;6.442;2022-12-10T00:32:44;25.67;;;10.90;;
62633;SDS011;48704;50.534;6.442;2022-12-10T00:35:10;27.23;;;11.77;;
62633;SDS011;48704;50.534;6.442;2022-12-10T00:37:35;29.40;;;12.15;;
62633;SDS011;48704;50.534;6.442;2022-12-10T00:40:00;28.38;;;11.20;;
62633;SDS011;48704;50.534;6.442;2022-12-10T00:42:26;26.35;;;11.05;;
62633;SDS011;48704;50.534;6.442;2022-12-10T00:44:51;24.70;;;11.85;;
62633;SDS011;48704;50.534;6.442;2022-12-10T00:47:16;25.58;;;11.10;;
62633;SDS011;48704;50.534;6.442;2022-12-10T00:49:41;26.40;;;10.98;;
62633;SDS011;48704;50.534;6.442;2022-12-10T00:52:07;27.40;;;11.48;;
62633;SDS011;48704;50.534;6.442;2022-12-10T00:54:32;26.10;;;10.45;;
62633;SDS011;48704;50.534;6.442;2022-12-10T00:56:57;23.15;;;10.45;;
62633;SDS011;48704;50.534;6.442;2022-12-10T00:59:23;23.25;;;9.52;;
62633;SDS011;48704;50.534;6.442;2022-12-10T01:01:48;24.80;;;9.15;;
62633;SDS011;48704;50.534;6.442;2022-12-10T01:04:15;22.88;;;9.90;;
62633;SDS011;48704;50.534;6.442;2022-12-10T01:09:09;24.40;;;10.60;;
62633;SDS011;48704;50.534;6.442;2022-12-10T01:11:39;27.58;;;11.40;;
62633;SDS011;48704;50.534;6.442;2022-12-10T01:14:07;28.98;;;10.65;;
62633;SDS011;48704;50.534;6.442;2022-12-10T01:16:35;26.85;;;11.15;;
62633;SDS011;48704;50.534;6.442;2022-12-10T01:19:00;29.75;;;12.15;;
62633;SDS011;48704;50.534;6.442;2022-12-10T01:21:26;28.35;;;11.02;;
62633;SDS011;48704;50.534;6.442;2022-12-10T01:23:53;24.88;;;10.43;;
62633;SDS011;48704;50.534;6.442;2022-12-10T01:26:20;23.55;;;11.32;;
62633;SDS011;48704;50.534;6.442;2022-12-10T01:28:47;22.83;;;11.50;;
62633;SDS011;48704;50.534;6.442;2022-12-10T01:31:18;22.67;;;10.40;;
62633;SDS011;48704;50.534;6.442;2022-12-10T01:33:45;22.17;;;10.25;;
62633;SDS011;48704;50.534;6.442;2022-12-10T01:36:13;27.02;;;12.20;;
62633;SDS011;48704;50.534;6.442;2022-12-10T01:38:44;27.05;;;11.80;;
62633;SDS011;48704;50.534;6.442;2022-12-10T01:41:15;23.92;;;11.10;;
62633;SDS011;48704;50.534;6.442;2022-12-10T01:46:26;23.45;;;10.18;;
62633;SDS011;48704;50.534;6.442;2022-12-10T01:48:53;23.90;;;10.68;;
62633;SDS011;48704;50.534;6.442;2022-12-10T01:51:20;32.42;;;12.73;;
62633;SDS011;48704;50.534;6.442;2022-12-10T01:53:45;31.63;;;12.93;;
62633;SDS011;48704;50.534;6.442;2022-12-10T01:56:12;31.33;;;12.65;;
62633;SDS011;48704;50.534;6.442;2022-12-10T01:58:40;34.85;;;14.52;;
62633;SDS011;48704;50.534;6.442;2022-12-10T02:01:27;46.97;;;18.98;;
62633;SDS011;48704;50.534;6.442;2022-12-10T02:04:03;32.75;;;12.98;;
62633;SDS011;48704;50.534;6.442;2022-12-10T02:06:41;26.27;;;10.38;;
62633;SDS011;48704;50.534;6.442;2022-12-10T02:15:24;24.98;;;12.27;;
62633;SDS011;48704;50.534;6.442;2022-12-10T02:17:58;30.63;;;13.15;;
62633;SDS011;48704;50.534;6.442;2022-12-10T02:20:38;35.03;;;18.40;;
62633;SDS011;48704;50.534;6.442;2022-12-10T02:23:14;25.67;;;12.70;;
62633;SDS011;48704;50.534;6.442;2022-12-10T02:25:46;40.75;;;18.02;;
62633;SDS011;48704;50.534;6.442;2022-12-10T02:31:00;45.45;;;17.77;;
62633;SDS011;48704;50.534;6.442;2022-12-10T02:33:28;40.30;;;16.08;;
62633;SDS011;48704;50.534;6.442;2022-12-10T02:35:56;31.98;;;14.57;;
62633;SDS011;48704;50.534;6.442;2022-12-10T02:38:24;26.00;;;11.77;;
62633;SDS011;48704;50.534;6.442;2022-12-10T02:40:54;24.45;;;11.77;;
62633;SDS011;48704;50.534;6.442;2022-12-10T02:43:31;29.85;;;11.60;;
62633;SDS011;48704;50.534;6.442;2022-12-10T02:45:58;29.02;;;12.05;;
62633;SDS011;48704;50.534;6.442;2022-12-10T02:48:26;32.13;;;14.32;;
62633;SDS011;48704;50.534;6.442;2022-12-10T02:50:55;28.17;;;14.80;;
62633;SDS011;48704;50.534;6.442;2022-12-10T02:53:20;34.85;;;13.15;;
62633;SDS011;48704;50.534;6.442;2022-12-10T03:05:02;21.80;;;9.55;;
62633;SDS011;48704;50.534;6.442;2022-12-10T03:07:28;25.80;;;12.02;;
62633;SDS011;48704;50.534;6.442;2022-12-10T03:10:16;25.83;;;11.13;;
62633;SDS011;48704;50.534;6.442;2022-12-10T03:12:50;25.27;;;11.27;;
62633;SDS011;48704;50.534;6.442;2022-12-10T03:15:23;28.13;;;11.18;;
62633;SDS011;48704;50.534;6.442;2022-12-10T03:17:50;27.98;;;11.07;;
62633;SDS011;48704;50.534;6.442;2022-12-10T03:20:18;28.70;;;13.05;;
62633;SDS011;48704;50.534;6.442;2022-12-10T03:22:44;27.05;;;12.02;;
62633;SDS011;48704;50.534;6.442;2022-12-10T03:25:13;24.35;;;11.20;;
62633;SDS011;48704;50.534;6.442;2022-12-10T03:27:54;25.60;;;10.63;;
62633;SDS011;48704;50.534;6.442;2022-12-10T03:30:21;25.75;;;10.60;;
62633;SDS011;48704;50.534;6.442;2022-12-10T03:32:46;22.90;;;10.50;;
62633;SDS011;48704;50.534;6.442;2022-12-10T03:35:16;26.08;;;10.20;;
62633;SDS011;48704;50.534;6.442;2022-12-10T03:37:44;28.33;;;11.20;;
62633;SDS011;48704;50.534;6.442;2022-12-10T03:40:10;26.67;;;10.95;;
62633;SDS011;48704;50.534;6.442;2022-12-10T03:42:37;33.78;;;12.05;;
62633;SDS011;48704;50.534;6.442;2022-12-10T03:45:03;34.70;;;12.50;;
62633;SDS011;48704;50.534;6.442;2022-12-10T03:47:30;25.20;;;11.35;;
62633;SDS011;48704;50.534;6.442;2022-12-10T03:49:55;28.60;;;11.60;;
62633;SDS011;48704;50.534;6.442;2022-12-10T03:52:21;24.67;;;11.48;;
62633;SDS011;48704;50.534;6.442;2022-12-10T03:54:46;24.67;;;10.73;;
62633;SDS011;48704;50.534;6.442;2022-12-10T03:57:11;28.35;;;12.57;;
62633;SDS011;48704;50.534;6.442;2022-12-10T03:59:37;26.38;;;11.88;;
62633;SDS011;48704;50.534;6.442;2022-12-10T04:02:02;32.22;;;12.70;;
62633;SDS011;48704;50.534;6.442;2022-12-10T04:04:28;26.95;;;10.90;;
62633;SDS011;48704;50.534;6.442;2022-12-10T04:06:53;24.27;;;10.63;;
62633;SDS011;48704;50.534;6.442;2022-12-10T04:09:19;25.85;;;11.43;;
62633;SDS011;48704;50.534;6.442;2022-12-10T04:11:44;29.10;;;12.07;;
62633;SDS011;48704;50.534;6.442;2022-12-10T04:14:10;27.55;;;12.25;;
62633;SDS011;48704;50.534;6.442;2022-12-10T04:16:56;29.05;;;11.40;;
62633;SDS011;48704;50.534;6.442;2022-12-10T04:19:21;31.02;;;13.18;;
62633;SDS011;48704;50.534;6.442;2022-12-10T04:21:46;30.30;;;10.73;;
62633;SDS011;48704;50.534;6.442;2022-12-10T04:24:31;25.40;;;11.48;;
62633;SDS011;48704;50.534;6.442;2022-12-10T04:29:54;26.50;;;10.95;;
62633;SDS011;48704;50.534;6.442;2022-12-10T04:32:20;28.55;;;12.15;;
62633;SDS011;48704;50.534;6.442;2022-12-10T04:34:46;21.33;;;10.02;;
62633;SDS011;48704;50.534;6.442;2022-12-10T04:37:15;28.10;;;11.95;;
62633;SDS011;48704;50.534;6.442;2022-12-10T04:39:41;23.42;;;10.05;;
62633;SDS011;48704;50.534;6.442;2022-12-10T04:42:07;28.35;;;11.95;;
62633;SDS011;48704;50.534;6.442;2022-12-10T04:44:32;21.77;;;11.02;;
62633;SDS011;48704;50.534;6.442;2022-12-10T04:46:58;23.08;;;9.65;;
62633;SDS011;48704;50.534;6.442;2022-12-10T04:49:24;25.95;;;11.75;;
62633;SDS011;48704;50.534;6.442;2022-12-10T04:51:49;25.98;;;11.77;;
62633;SDS011;48704;50.534;6.442;2022-12-10T04:54:16;26.33;;;11.00;;
62633;SDS011;48704;50.534;6.442;2022-12-10T04:56:45;30.73;;;11.57;;
62633;SDS011;48704;50.534;6.442;2022-12-10T04:59:11;23.83;;;10.77;;
62633;SDS011;48704;50.534;6.442;2022-12-10T05:01:36;26.85;;;12.90;;
62633;SDS011;48704;50.534;6.442;2022-12-10T05:04:02;27.95;;;11.23;;
62633;SDS011;48704;50.534;6.442;2022-12-10T05:06:30;24.65;;;10.45;;
62633;SDS011;48704;50.534;6.442;2022-12-10T05:08:56;29.15;;;10.43;;
62633;SDS011;48704;50.534;6.442;2022-12-10T05:11:23;27.20;;;11.52;;
62633;SDS011;48704;50.534;6.442;2022-12-10T05:13:49;26.70;;;11.50;;
62633;SDS011;48704;50.534;6.442;2022-12-10T05:16:16;29.92;;;10.98;;
62633;SDS011;48704;50.534;6.442;2022-12-10T05:18:42;28.98;;;11.25;;
62633;SDS011;48704;50.534;6.442;2022-12-10T05:21:12;26.75;;;10.35;;
62633;SDS011;48704;50.534;6.442;2022-12-10T05:23:40;27.92;;;11.55;;
62633;SDS011;48704;50.534;6.442;2022-12-10T05:26:09;27.63;;;11.02;;
62633;SDS011;48704;50.534;6.442;2022-12-10T05:28:41;33.42;;;11.95;;
62633;SDS011;48704;50.534;6.442;2022-12-10T05:31:21;26.85;;;11.63;;
62633;SDS011;48704;50.534;6.442;2022-12-10T05:33:48;25.95;;;9.75;;
62633;SDS011;48704;50.534;6.442;2022-12-10T05:36:14;23.73;;;10.10;;
62633;SDS011;48704;50.534;6.442;2022-12-10T05:38:42;25.65;;;11.00;;
62633;SDS011;48704;50.534;6.442;2022-12-10T05:41:09;28.08;;;11.43;;
62633;SDS011;48704;50.534;6.442;2022-12-10T05:43:37;22.90;;;10.55;;
62633;SDS011;48704;50.534;6.442;2022-12-10T05:46:04;20.48;;;9.15;;
62633;SDS011;48704;50.534;6.442;2022-12-10T05:48:32;27.70;;;11.40;;
62633;SDS011;48704;50.534;6.442;2022-12-10T05:51:02;25.02;;;10.48;;
62633;SDS011;48704;50.534;6.442;2022-12-10T05:53:28;24.00;;;10.50;;
62633;SDS011;48704;50.534;6.442;2022-12-10T05:56:00;25.90;;;10.75;;
62633;SDS011;48704;50.534;6.442;2022-12-10T05:58:28;21.63;;;9.25;;
62633;SDS011;48704;50.534;6.442;2022-12-10T06:00:55;18.90;;;8.65;;
62633;SDS011;48704;50.534;6.442;2022-12-10T06:03:24;28.23;;;10.65;;
62633;SDS011;48704;50.534;6.442;2022-12-10T06:05:52;26.13;;;10.95;;
62633;SDS011;48704;50.534;6.442;2022-12-10T06:08:17;22.35;;;9.85;;
62633;SDS011;48704;50.534;6.442;2022-12-10T06:10:43;25.23;;;10.75;;
62633;SDS011;48704;50.534;6.442;2022-12-10T06:13:08;27.20;;;10.65;;
62633;SDS011;48704;50.534;6.442;2022-12-10T06:15:33;24.42;;;11.10;;
62633;SDS011;48704;50.534;6.442;2022-12-10T06:17:59;30.50;;;12.82;;
62633;SDS011;48704;50.534;6.442;2022-12-10T06:20:25;29.33;;;13.60;;
62633;SDS011;48704;50.534;6.442;2022-12-10T06:22:51;27.10;;;13.15;;
62633;SDS011;48704;50.534;6.442;2022-12-10T06:25:17;25.58;;;11.30;;
62633;SDS011;48704;50.534;6.442;2022-12-10T06:27:43;34.85;;;13.95;;
62633;SDS011;48704;50.534;6.442;2022-12-10T06:30:09;28.20;;;11.52;;
62633;SDS011;48704;50.534;6.442;2022-12-10T06:32:35;25.35;;;10.90;;
62633;SDS011;48704;50.534;6.442;2022-12-10T06:35:00;26.23;;;10.63;;
62633;SDS011;48704;50.534;6.442;2022-12-10T06:37:26;22.08;;;10.68;;
62633;SDS011;48704;50.534;6.442;2022-12-10T06:39:51;22.67;;;9.48;;
62633;SDS011;48704;50.534;6.442;2022-12-10T06:42:17;20.88;;;8.75;;
62633;SDS011;48704;50.534;6.442;2022-12-10T06:44:43;23.40;;;9.10;;
62633;SDS011;48704;50.534;6.442;2022-12-10T06:47:08;22.20;;;9.20;;
62633;SDS011;48704;50.534;6.442;2022-12-10T06:49:34;22.80;;;10.05;;
62633;SDS011;48704;50.534;6.442;2022-12-10T06:51:59;26.60;;;9.57;;
62633;SDS011;48704;50.534;6.442;2022-12-10T06:54:24;20.98;;;9.52;;
62633;SDS011;48704;50.534;6.442;2022-12-10T06:56:50;20.13;;;9.73;;
62633;SDS011;48704;50.534;6.442;2022-12-10T06:59:17;20.98;;;9.40;;
62633;SDS011;48704;50.534;6.442;2022-12-10T07:01:45;23.70;;;9.15;;
62633;SDS011;48704;50.534;6.442;2022-12-10T07:04:10;26.27;;;10.20;;
62633;SDS011;48704;50.534;6.442;2022-12-10T07:06:35;25.00;;;10.25;;
62633;SDS011;48704;50.534;6.442;2022-12-10T07:09:01;27.20;;;10.32;;
62633;SDS011;48704;50.534;6.442;2022-12-10T07:11:26;25.92;;;9.77;;
62633;SDS011;48704;50.534;6.442;2022-12-10T07:13:51;25.30;;;11.52;;
62633;SDS011;48704;50.534;6.442;2022-12-10T07:16:21;22.15;;;9.95;;
62633;SDS011;48704;50.534;6.442;2022-12-10T07:18:52;21.83;;;9.15;;
62633;SDS011;48704;50.534;6.442;2022-12-10T07:21:37;21.88;;;9.40;;
62633;SDS011;48704;50.534;6.442;2022-12-10T07:24:06;25.50;;;10.63;;
62633;SDS011;48704;50.534;6.442;2022-12-10T07:26:36;20.30;;;10.10;;
62633;SDS011;48704;50.534;6.442;2022-12-10T07:29:03;24.55;;;10.43;;
62633;SDS011;48704;50.534;6.442;2022-12-10T07:31:30;23.08;;;8.82;;
62633;SDS011;48704;50.534;6.442;2022-12-10T07:33:56;21.35;;;9.35;;
62633;SDS011;48704;50.534;6.442;2022-12-10T07:36:23;19.67;;;8.80;;
62633;SDS011;48704;50.534;6.442;2022-12-10T07:38:49;21.80;;;10.05;;
62633;SDS011;48704;50.534;6.442;2022-12-10T07:41:16;24.73;;;9.88;;
62633;SDS011;48704;50.534;6.442;2022-12-10T07:43:42;20.48;;;9.75;;
62633;SDS011;48704;50.534;6.442;2022-12-10T07:48:39;23.45;;;9.30;;
62633;SDS011;48704;50.534;6.442;2022-12-10T07:51:06;21.50;;;8.68;;
62633;SDS011;48704;50.534;6.442;2022-12-10T07:53:32;21.48;;;8.90;;
62633;SDS011;48704;50.534;6.442;2022-12-10T07:55:57;22.30;;;10.13;;
62633;SDS011;48704;50.534;6.442;2022-12-10T07:58:23;19.45;;;7.85;;
62633;SDS011;48704;50.534;6.442;2022-12-10T08:00:48;24.67;;;9.25;;
62633;SDS011;48704;50.534;6.442;2022-12-10T08:03:14;20.45;;;10.35;;
62633;SDS011;48704;50.534;6.442;2022-12-10T08:05:39;23.13;;;10.00;;
62633;SDS011;48704;50.534;6.442;2022-12-10T08:08:04;23.42;;;9.88;;
62633;SDS011;48704;50.534;6.442;2022-12-10T08:10:32;18.35;;;9.20;;
62633;SDS011;48704;50.534;6.442;2022-12-10T08:12:59;19.30;;;9.38;;
62633;SDS011;48704;50.534;6.442;2022-12-10T08:15:24;23.05;;;9.32;;
62633;SDS011;48704;50.534;6.442;2022-12-10T08:17:50;27.38;;;9.90;;
62633;SDS011;48704;50.534;6.442;2022-12-10T08:20:16;22.42;;;9.35;;
62633;SDS011;48704;50.534;6.442;2022-12-10T08:22:41;18.55;;;9.68;;
62633;SDS011;48704;50.534;6.442;2022-12-10T08:25:06;25.67;;;11.70;;
62633;SDS011;48704;50.534;6.442;2022-12-10T08:27:32;26.55;;;10.20;;
62633;SDS011;48704;50.534;6.442;2022-12-10T08:29:57;27.80;;;12.07;;
62633;SDS011;48704;50.534;6.442;2022-12-10T08:32:22;25.52;;;9.88;;
62633;SDS011;48704;50.534;6.442;2022-12-10T08:34:48;22.10;;;9.15;;
62633;SDS011;48704;50.534;6.442;2022-12-10T08:37:13;21.38;;;9.18;;
62633;SDS011;48704;50.534;6.442;2022-12-10T08:39:39;19.60;;;8.25;;
62633;SDS011;48704;50.534;6.442;2022-12-10T08:42:05;21.40;;;9.30;;
62633;SDS011;48704;50.534;6.442;2022-12-10T08:44:30;19.92;;;8.80;;
62633;SDS011;48704;50.534;6.442;2022-12-10T08:46:56;28.17;;;11.23;;
62633;SDS011;48704;50.534;6.442;2022-12-10T08:49:21;18.27;;;8.13;;
62633;SDS011;48704;50.534;6.442;2022-12-10T08:51:46;17.83;;;8.25;;
62633;SDS011;48704;50.534;6.442;2022-12-10T08:54:15;24.02;;;9.18;;
62633;SDS011;48704;50.534;6.442;2022-12-10T08:56:40;18.38;;;8.25;;
62633;SDS011;48704;50.534;6.442;2022-12-10T08:59:06;18.20;;;7.93;;
62633;SDS011;48704;50.534;6.442;2022-12-10T09:01:31;20.13;;;8.73;;
62633;SDS011;48704;50.534;6.442;2022-12-10T09:03:57;21.70;;;9.00;;
62633;SDS011;48704;50.534;6.442;2022-12-10T09:06:23;19.33;;;8.98;;
62633;SDS011;48704;50.534;6.442;2022-12-10T09:08:49;17.35;;;8.85;;
62633;SDS011;48704;50.534;6.442;2022-12-10T09:11:19;22.60;;;9.27;;
62633;SDS011;48704;50.534;6.442;2022-12-10T09:13:52;20.83;;;8.68;;
62633;SDS011;48704;50.534;6.442;2022-12-10T09:16:18;20.95;;;8.20;;
62633;SDS011;48704;50.534;6.442;2022-12-10T09:18:44;20.23;;;9.50;;
62633;SDS011;48704;50.534;6.442;2022-12-10T09:21:10;23.27;;;9.68;;
62633;SDS011;48704;50.534;6.442;2022-12-10T09:23:38;20.38;;;8.00;;
62633;SDS011;48704;50.534;6.442;2022-12-10T09:26:07;25.48;;;9.68;;
62633;SDS011;48704;50.534;6.442;2022-12-10T09:28:34;25.17;;;8.93;;
62633;SDS011;48704;50.534;6.442;2022-12-10T09:31:01;24.27;;;10.85;;
62633;SDS011;48704;50.534;6.442;2022-12-10T09:33:29;22.83;;;9.85;;
62633;SDS011;48704;50.534;6.442;2022-12-10T09:35:54;24.50;;;10.82;;
62633;SDS011;48704;50.534;6.442;2022-12-10T09:38:20;20.33;;;8.40;;
62633;SDS011;48704;50.534;6.442;2022-12-10T09:41:01;28.42;;;10.02;;
62633;SDS011;48704;50.534;6.442;2022-12-10T09:48:40;19.58;;;8.27;;
62633;SDS011;48704;50.534;6.442;2022-12-10T09:51:24;17.50;;;8.82;;
62633;SDS011;48704;50.534;6.442;2022-12-10T09:53:52;19.17;;;8.32;;
62633;SDS011;48704;50.534;6.442;2022-12-10T09:56:26;18.77;;;7.95;;
62633;SDS011;48704;50.534;6.442;2022-12-10T09:58:54;20.00;;;9.18;;
62633;SDS011;48704;50.534;6.442;2022-12-10T10:01:24;21.73;;;9.05;;
62633;SDS011;48704;50.534;6.442;2022-12-10T10:03:54;20.05;;;7.68;;
62633;SDS011;48704;50.534;6.442;2022-12-10T10:06:21;20.75;;;7.97;;
62633;SDS011;48704;50.534;6.442;2022-12-10T10:08:51;19.55;;;8.07;;
62633;SDS011;48704;50.534;6.442;2022-12-10T10:11:20;16.30;;;7.72;;
62633;SDS011;48704;50.534;6.442;2022-12-10T10:13:51;17.77;;;7.75;;
62633;SDS011;48704;50.534;6.442;2022-12-10T10:16:27;19.88;;;7.80;;
62633;SDS011;48704;50.534;6.442;2022-12-10T10:21:35;14.23;;;6.45;;
62633;SDS011;48704;50.534;6.442;2022-12-10T10:24:05;15.60;;;6.95;;
62633;SDS011;48704;50.534;6.442;2022-12-10T10:26:36;17.02;;;7.70;;
62633;SDS011;48704;50.534;6.442;2022-12-10T10:29:04;15.32;;;7.20;;
62633;SDS011;48704;50.534;6.442;2022-12-10T10:31:32;16.55;;;7.40;;
62633;SDS011;48704;50.534;6.442;2022-12-10T10:34:00;16.50;;;7.88;;
62633;SDS011;48704;50.534;6.442;2022-12-10T10:36:30;15.68;;;6.72;;
62633;SDS011;48704;50.534;6.442;2022-12-10T10:41:42;16.92;;;7.93;;
62633;SDS011;48704;50.534;6.442;2022-12-10T10:44:15;16.42;;;7.90;;
62633;SDS011;48704;50.534;6.442;2022-12-10T10:46:44;14.10;;;7.45;;
62633;SDS011;48704;50.534;6.442;2022-12-10T10:49:13;18.27;;;7.10;;
62633;SDS011;48704;50.534;6.442;2022-12-10T10:51:47;15.00;;;6.63;;
62633;SDS011;48704;50.534;6.442;2022-12-10T10:54:30;11.52;;;6.20;;
62633;SDS011;48704;50.534;6.442;2022-12-10T10:56:57;17.13;;;7.50;;
62633;SDS011;48704;50.534;6.442;2022-12-10T10:59:30;16.42;;;8.68;;
62633;SDS011;48704;50.534;6.442;2022-12-10T11:02:01;16.23;;;7.05;;
62633;SDS011;48704;50.534;6.442;2022-12-10T11:09:54;13.65;;;7.22;;
62633;SDS011;48704;50.534;6.442;2022-12-10T11:12:39;15.30;;;8.35;;
62633;SDS011;48704;50.534;6.442;2022-12-10T11:20:20;14.40;;;7.13;;
62633;SDS011;48704;50.534;6.442;2022-12-10T11:22:48;16.60;;;7.88;;
62633;SDS011;48704;50.534;6.442;2022-12-10T11:25:15;17.52;;;6.32;;
62633;SDS011;48704;50.534;6.442;2022-12-10T11:27:49;16.15;;;9.05;;
62633;SDS011;48704;50.534;6.442;2022-12-10T11:30:25;13.65;;;6.60;;
62633;SDS011;48704;50.534;6.442;2022-12-10T11:33:13;16.75;;;6.55;;
62633;SDS011;48704;50.534;6.442;2022-12-10T11:36:05;13.90;;;6.85;;
62633;SDS011;48704;50.534;6.442;2022-12-10T11:38:50;12.63;;;7.70;;
62633;SDS011;48704;50.534;6.442;2022-12-10T11:42:14;12.88;;;6.40;;
62633;SDS011;48704;50.534;6.442;2022-12-10T11:52:19;14.65;;;5.97;;
62633;SDS011;48704;50.534;6.442;2022-12-10T11:55:18;13.50;;;6.15;;
62633;SDS011;48704;50.534;6.442;2022-12-10T11:57:48;13.63;;;5.78;;
62633;SDS011;48704;50.534;6.442;2022-12-10T12:00:27;14.02;;;6.13;;
62633;SDS011;48704;50.534;6.442;2022-12-10T12:03:23;10.30;;;5.10;;
62633;SDS011;48704;50.534;6.442;2022-12-10T12:14:49;9.90;;;4.72;;
62633;SDS011;48704;50.534;6.442;2022-12-10T12:20:00;12.30;;;6.28;;
62633;SDS011;48704;50.534;6.442;2022-12-10T12:22:31;16.45;;;6.43;;
62633;SDS011;48704;50.534;6.442;2022-12-10T12:25:10;13.43;;;5.93;;
62633;SDS011;48704;50.534;6.442;2022-12-10T12:30:18;13.70;;;5.93;;
62633;SDS011;48704;50.534;6.442;2022-12-10T12:35:35;13.75;;;6.03;;
62633;SDS011;48704;50.534;6.442;2022-12-10T12:44:18;16.33;;;7.13;;
62633;SDS011;48704;50.534;6.442;2022-12-10T12:46:44;20.05;;;6.72;;
62633;SDS011;48704;50.534;6.442;2022-12-10T12:49:14;13.93;;;6.47;;
62633;SDS011;48704;50.534;6.442;2022-12-10T12:52:16;15.93;;;6.40;;
62633;SDS011;48704;50.534;6.442;2022-12-10T12:55:00;16.98;;;6.88;;
62633;SDS011;48704;50.534;6.442;2022-12-10T12:57:44;17.23;;;7.43;;
62633;SDS011;48704;50.534;6.442;2022-12-10T13:00:17;14.40;;;6.40;;
62633;SDS011;48704;50.534;6.442;2022-12-10T13:05:42;17.02;;;7.20;;
62633;SDS011;48704;50.534;6.442;2022-12-10T13:10:44;14.98;;;7.30;;
62633;SDS011;48704;50.534;6.442;2022-12-10T13:13:17;14.52;;;6.82;;
62633;SDS011;48704;50.534;6.442;2022-12-10T13:15:49;15.05;;;6.65;;
62633;SDS011;48704;50.534;6.442;2022-12-10T13:20:44;14.18;;;6.80;;
62633;SDS011;48704;50.534;6.442;2022-12-10T13:31:05;16.80;;;6.07;;
62633;SDS011;48704;50.534;6.442;2022-12-10T13:36:12;7.88;;;4.25;;
62633;SDS011;48704;50.534;6.442;2022-12-10T13:38:41;13.60;;;4.80;;
62633;SDS011;48704;50.534;6.442;2022-12-10T13:41:20;12.82;;;5.50;;
62633;SDS011;48704;50.534;6.442;2022-12-10T13:49:17;12.15;;;5.38;;
62633;SDS011;48704;50.534;6.442;2022-12-10T13:51:54;13.55;;;5.30;;
62633;SDS011;48704;50.534;6.442;2022-12-10T14:00:33;9.00;;;4.10;;
62633;SDS011;48704;50.534;6.442;2022-12-10T14:03:14;17.58;;;6.13;;
62633;SDS011;48704;50.534;6.442;2022-12-10T14:08:27;13.73;;;7.05;;
62633;SDS011;48704;50.534;6.442;2022-12-10T14:10:56;10.77;;;4.60;;
62633;SDS011;48704;50.534;6.442;2022-12-10T14:13:32;7.28;;;3.45;;
62633;SDS011;48704;50.534;6.442;2022-12-10T14:16:02;10.40;;;4.57;;
62633;SDS011;48704;50.534;6.442;2022-12-10T14:18:29;13.70;;;3.78;;
62633;SDS011;48704;50.534;6.442;2022-12-10T14:20:55;15.05;;;4.70;;
62633;SDS011;48704;50.534;6.442;2022-12-10T14:23:26;12.68;;;5.22;;
62633;SDS011;48704;50.534;6.442;2022-12-10T14:28:32;10.45;;;4.47;;
62633;SDS011;48704;50.534;6.442;2022-12-10T14:30:58;13.10;;;4.95;;
62633;SDS011;48704;50.534;6.442;2022-12-10T14:33:24;12.95;;;4.82;;
62633;SDS011;48704;50.534;6.442;2022-12-10T14:35:51;11.13;;;5.40;;
62633;SDS011;48704;50.534;6.442;2022-12-10T14:38:19;11.32;;;5.15;;
62633;SDS011;48704;50.534;6.442;2022-12-10T14:40:46;13.18;;;5.70;;
62633;SDS011;48704;50.534;6.442;2022-12-10T14:43:20;18.48;;;5.63;;
62633;SDS011;48704;50.534;6.442;2022-12-10T14:45:53;13.88;;;5.78;;
62633;SDS011;48704;50.534;6.442;2022-12-10T14:48:23;13.50;;;5.28;;
62633;SDS011;48704;50.534;6.442;2022-12-10T14:50:48;12.63;;;5.07;;
62633;SDS011;48704;50.534;6.442;2022-12-10T14:53:16;13.15;;;5.50;;
62633;SDS011;48704;50.534;6.442;2022-12-10T14:55:46;12.48;;;4.90;;
62633;SDS011;48704;50.534;6.442;2022-12-10T14:58:22;13.37;;;6.43;;
62633;SDS011;48704;50.534;6.442;2022-12-10T15:00:57;11.38;;;5.78;;
62633;SDS011;48704;50.534;6.442;2022-12-10T15:03:26;12.25;;;5.32;;
62633;SDS011;48704;50.534;6.442;2022-12-10T15:05:55;15.07;;;5.60;;
62633;SDS011;48704;50.534;6.442;2022-12-10T15:08:23;11.13;;;5.18;;
62633;SDS011;48704;50.534;6.442;2022-12-10T15:10:51;16.45;;;6.15;;
62633;SDS011;48704;50.534;6.442;2022-12-10T15:13:32;13.90;;;5.75;;
62633;SDS011;48704;50.534;6.442;2022-12-10T15:16:00;15.75;;;6.35;;
62633;SDS011;48704;50.534;6.442;2022-12-10T15:18:27;13.50;;;5.90;;
62633;SDS011;48704;50.534;6.442;2022-12-10T15:21:10;15.73;;;7.40;;
62633;SDS011;48704;50.534;6.442;2022-12-10T15:23:39;17.13;;;7.80;;
62633;SDS011;48704;50.534;6.442;2022-12-10T15:26:18;17.88;;;8.20;;
62633;SDS011;48704;50.534;6.442;2022-12-10T15:28:44;20.15;;;8.85;;
62633;SDS011;48704;50.534;6.442;2022-12-10T15:33:58;15.98;;;7.10;;
62633;SDS011;48704;50.534;6.442;2022-12-10T15:36:34;17.92;;;7.55;;
62633;SDS011;48704;50.534;6.442;2022-12-10T15:39:24;15.70;;;7.90;;
62633;SDS011;48704;50.534;6.442;2022-12-10T15:44:38;24.15;;;10.23;;
62633;SDS011;48704;50.534;6.442;2022-12-10T15:49:43;24.70;;;12.45;;
62633;SDS011;48704;50.534;6.442;2022-12-10T15:52:16;21.10;;;9.00;;
62633;SDS011;48704;50.534;6.442;2022-12-10T15:54:44;19.40;;;8.50;;
62633;SDS011;48704;50.534;6.442;2022-12-10T15:57:21;16.10;;;7.10;;
62633;SDS011;48704;50.534;6.442;2022-12-10T15:59:49;16.17;;;7.43;;
62633;SDS011;48704;50.534;6.442;2022-12-10T16:02:33;13.13;;;6.50;;
62633;SDS011;48704;50.534;6.442;2022-12-10T16:07:58;13.18;;;6.45;;
62633;SDS011;48704;50.534;6.442;2022-12-10T16:10:29;11.95;;;5.53;;
62633;SDS011;48704;50.534;6.442;2022-12-10T16:12:57;20.05;;;6.47;;
62633;SDS011;48704;50.534;6.442;2022-12-10T16:15:25;12.02;;;5.18;;
62633;SDS011;48704;50.534;6.442;2022-12-10T16:17:52;12.10;;;5.10;;
62633;SDS011;48704;50.534;6.442;2022-12-10T16:22:46;11.73;;;5.15;;
62633;SDS011;48704;50.534;6.442;2022-12-10T16:25:15;12.45;;;5.70;;
62633;SDS011;48704;50.534;6.442;2022-12-10T16:27:41;9.75;;;5.10;;
62633;SDS011;48704;50.534;6.442;2022-12-10T16:30:22;16.90;;;6.88;;
62633;SDS011;48704;50.534;6.442;2022-12-10T16:32:48;13.38;;;6.18;;
62633;SDS011;48704;50.534;6.442;2022-12-10T16:35:13;13.27;;;5.57;;
62633;SDS011;48704;50.534;6.442;2022-12-10T16:37:46;11.18;;;5.32;;
62633;SDS011;48704;50.534;6.442;2022-12-10T16:40:15;10.27;;;5.30;;
62633;SDS011;48704;50.534;6.442;2022-12-10T16:42:41;14.57;;;5.45;;
62633;SDS011;48704;50.534;6.442;2022-12-10T16:47:53;14.07;;;6.38;;
62633;SDS011;48704;50.534;6.442;2022-12-10T16:50:18;15.85;;;6.70;;
62633;SDS011;48704;50.534;6.442;2022-12-10T16:52:45;14.45;;;6.30;;